createdAt,value
2018-04-16T00:01:30.035Z,9.36
2018-04-16T00:03:59.543Z,9.50
2018-04-16T00:06:28.000Z,9.51
2018-04-16T00:08:56.428Z,9.29
2018-04-16T00:11:25.509Z,9.14
2018-04-16T00:13:53.955Z,9.27
2018-04-16T00:16:22.472Z,9.34
2018-04-16T00:18:50.958Z,9.29
2018-04-16T00:21:19.347Z,9.39
2018-04-16T00:23:47.869Z,9.48
2018-04-16T00:26:18.913Z,9.51
2018-04-16T00:28:47.296Z,9.40
2018-04-16T00:31:15.653Z,9.22
2018-04-16T00:33:50.144Z,9.20
2018-04-16T00:39:25.670Z,9.25
2018-04-16T00:41:59.579Z,9.22
2018-04-16T00:47:37.052Z,9.19
2018-04-16T00:50:12.714Z,9.18
2018-04-16T00:52:46.749Z,9.03
2018-04-16T00:55:22.235Z,9.07
2018-04-16T00:57:56.248Z,8.98
2018-04-16T01:00:30.277Z,8.91
2018-04-16T01:03:04.181Z,8.88
2018-04-16T01:05:38.219Z,8.59
2018-04-16T01:08:12.089Z,8.71
2018-04-16T01:10:46.927Z,8.71
2018-04-16T01:13:21.166Z,8.75
2018-04-16T01:15:55.151Z,8.76
2018-04-16T01:18:29.152Z,8.82
2018-04-16T01:21:03.387Z,8.70
2018-04-16T01:23:37.544Z,8.78
2018-04-16T01:26:12.359Z,8.86
2018-04-16T01:28:46.228Z,8.80
2018-04-16T01:31:21.192Z,8.79
2018-04-16T01:33:55.232Z,8.67
2018-04-16T01:36:29.174Z,8.74
2018-04-16T01:39:03.159Z,8.78
2018-04-16T01:41:37.103Z,8.76
2018-04-16T01:44:11.156Z,8.66
2018-04-16T01:49:51.693Z,8.58
2018-04-16T01:52:25.833Z,8.71
2018-04-16T01:54:59.842Z,8.59
2018-04-16T01:57:33.812Z,8.71
2018-04-16T02:00:07.762Z,8.72
2018-04-16T02:02:41.937Z,8.61
2018-04-16T02:05:15.863Z,8.68
2018-04-16T02:07:49.950Z,8.58
2018-04-16T02:10:23.803Z,8.32
2018-04-16T02:16:03.857Z,8.23
2018-04-16T02:18:37.974Z,8.28
2018-04-16T02:21:11.919Z,8.27
2018-04-16T02:23:47.241Z,8.32
2018-04-16T02:26:21.229Z,8.36
2018-04-16T02:28:56.600Z,8.47
2018-04-16T02:31:30.732Z,8.53
2018-04-16T02:34:04.919Z,8.62
2018-04-16T02:36:38.821Z,8.60
2018-04-16T02:39:12.745Z,8.56
2018-04-16T02:41:46.834Z,8.46
2018-04-16T02:44:21.057Z,8.53
2018-04-16T02:46:54.982Z,8.65
2018-04-16T02:49:28.991Z,8.65
2018-04-16T02:52:02.901Z,8.55
2018-04-16T02:54:36.930Z,8.61
2018-04-16T03:00:20.823Z,8.63
2018-04-16T03:02:54.948Z,8.49
2018-04-16T03:05:28.883Z,8.66
2018-04-16T03:08:02.757Z,8.62
2018-04-16T03:10:36.881Z,8.66
2018-04-16T03:13:10.874Z,8.67
2018-04-16T03:15:44.950Z,8.71
2018-04-16T03:18:18.860Z,8.54
2018-04-16T03:20:54.293Z,8.57
2018-04-16T03:23:28.473Z,8.56
2018-04-16T03:26:02.566Z,8.52
2018-04-16T03:28:36.636Z,8.51
2018-04-16T03:31:10.468Z,8.41
2018-04-16T03:33:44.374Z,8.15
2018-04-16T03:36:19.248Z,8.15
2018-04-16T03:38:53.402Z,8.12
2018-04-16T03:41:27.673Z,8.18
2018-04-16T03:47:06.651Z,8.22
2018-04-16T03:49:40.715Z,8.26
2018-04-16T03:52:14.708Z,8.33
2018-04-16T03:54:43.103Z,8.27
2018-04-16T03:57:11.467Z,8.39
2018-04-16T03:59:40.643Z,8.35
2018-04-16T04:02:09.026Z,8.37
2018-04-16T04:04:37.364Z,8.24
2018-04-16T04:07:05.722Z,8.42
2018-04-16T04:09:34.057Z,8.47
2018-04-16T04:12:02.436Z,8.47
2018-04-16T04:14:30.839Z,8.43
2018-04-16T04:16:59.242Z,8.30
2018-04-16T04:19:27.632Z,8.43
2018-04-16T04:21:57.571Z,8.37
2018-04-16T04:24:37.701Z,8.36
2018-04-16T04:27:17.740Z,8.28
2018-04-16T04:29:57.795Z,8.24
2018-04-16T04:32:26.321Z,8.22
2018-04-16T04:34:54.666Z,8.32
2018-04-16T04:37:23.127Z,8.28
2018-04-16T04:39:52.145Z,8.35
2018-04-16T04:42:20.509Z,8.42
2018-04-16T04:44:48.988Z,8.41
2018-04-16T04:47:17.643Z,8.40
2018-04-16T04:49:46.094Z,8.52
2018-04-16T04:52:14.438Z,8.56
2018-04-16T04:54:43.443Z,8.49
2018-04-16T04:57:11.814Z,8.46
2018-04-16T04:59:40.160Z,8.53
2018-04-16T05:02:08.724Z,8.59
2018-04-16T05:04:37.071Z,8.69
2018-04-16T05:07:05.424Z,8.81
2018-04-16T05:09:33.807Z,8.88
2018-04-16T05:12:02.292Z,8.99
2018-04-16T05:14:30.682Z,9.04
2018-04-16T05:16:59.938Z,9.05
2018-04-16T05:19:28.344Z,9.10
2018-04-16T05:21:56.771Z,8.98
2018-04-16T05:24:25.292Z,8.89
2018-04-16T05:26:53.663Z,8.93
2018-04-16T05:29:22.213Z,9.06
2018-04-16T05:31:51.172Z,9.04
2018-04-16T05:34:19.553Z,9.11
2018-04-16T05:36:47.916Z,9.29
2018-04-16T05:39:16.312Z,9.35
2018-04-16T05:41:44.668Z,9.58
2018-04-16T05:44:13.047Z,9.68
2018-04-16T05:46:42.279Z,9.72
2018-04-16T05:49:10.626Z,9.50
2018-04-16T05:51:38.989Z,9.46
2018-04-16T05:54:08.740Z,9.50
2018-04-16T05:56:37.112Z,9.72
2018-04-16T05:59:05.474Z,9.86
2018-04-16T06:01:33.863Z,9.75
2018-04-16T06:04:02.253Z,9.78
2018-04-16T06:06:30.686Z,9.61
2018-04-16T06:08:59.194Z,9.37
2018-04-16T06:11:27.578Z,9.17
2018-04-16T06:13:56.096Z,9.11
2018-04-16T06:16:25.701Z,9.15
2018-04-16T06:18:54.501Z,9.06
2018-04-16T06:21:24.239Z,9.29
2018-04-16T06:23:53.272Z,9.24
2018-04-16T06:26:21.779Z,9.15
2018-04-16T06:28:50.390Z,9.07
2018-04-16T06:31:19.195Z,8.90
2018-04-16T06:33:47.595Z,8.82
2018-04-16T06:36:16.896Z,8.77
2018-04-16T06:38:45.492Z,9.01
2018-04-16T06:41:13.894Z,9.24
2018-04-16T06:43:42.266Z,9.21
2018-04-16T06:46:10.661Z,9.38
2018-04-16T06:48:39.279Z,9.43
2018-04-16T06:51:07.619Z,9.69
2018-04-16T06:53:36.136Z,9.68
2018-04-16T06:56:04.830Z,9.69
2018-04-16T06:58:33.213Z,9.86
2018-04-16T07:01:01.855Z,9.82
2018-04-16T07:03:30.268Z,9.82
2018-04-16T07:05:58.747Z,9.89
2018-04-16T07:08:27.343Z,9.96
2018-04-16T07:10:55.745Z,10.14
2018-04-16T07:13:24.259Z,10.07
2018-04-16T07:15:52.724Z,9.99
2018-04-16T07:18:21.194Z,10.25
2018-04-16T07:20:49.590Z,10.22
2018-04-16T07:23:18.118Z,10.33
2018-04-16T07:25:46.650Z,10.48
2018-04-16T07:28:15.013Z,10.40
2018-04-16T07:30:44.243Z,10.41
2018-04-16T07:33:14.298Z,10.48
2018-04-16T07:35:42.713Z,10.51
2018-04-16T07:38:11.172Z,10.64
2018-04-16T07:40:39.554Z,10.82
2018-04-16T07:43:08.052Z,10.64
2018-04-16T07:45:36.559Z,10.64
2018-04-16T07:48:04.942Z,10.72
2018-04-16T07:50:33.315Z,10.84
2018-04-16T07:53:02.599Z,10.90
2018-04-16T07:55:30.999Z,10.86
2018-04-16T07:57:59.449Z,10.83
2018-04-16T08:00:27.965Z,11.06
2018-04-16T08:02:56.353Z,11.13
2018-04-16T08:05:24.768Z,11.17
2018-04-16T08:07:54.220Z,11.38
2018-04-16T08:10:22.599Z,11.40
2018-04-16T08:12:51.031Z,11.43
2018-04-16T08:15:19.605Z,11.54
2018-04-16T08:17:47.980Z,11.68
2018-04-16T08:20:16.457Z,11.70
2018-04-16T08:22:45.888Z,12.05
2018-04-16T08:25:14.387Z,12.03
2018-04-16T08:27:42.928Z,12.10
2018-04-16T08:30:11.644Z,12.38
2018-04-16T08:32:40.098Z,12.32
2018-04-16T08:35:08.972Z,12.45
2018-04-16T08:37:37.359Z,12.39
2018-04-16T08:40:05.851Z,12.56
2018-04-16T08:42:34.235Z,12.57
2018-04-16T08:45:02.612Z,12.32
2018-04-16T08:47:30.993Z,12.33
2018-04-16T08:49:59.383Z,12.43
2018-04-16T08:52:28.262Z,12.36
2018-04-16T08:54:56.630Z,12.53
2018-04-16T08:57:25.008Z,12.68
2018-04-16T08:59:54.212Z,12.55
2018-04-16T09:02:23.719Z,12.90
2018-04-16T09:04:52.403Z,13.21
2018-04-16T09:07:22.225Z,13.21
2018-04-16T09:09:50.901Z,13.40
2018-04-16T09:12:19.408Z,13.64
2018-04-16T09:14:48.315Z,13.64
2018-04-16T09:17:16.748Z,13.86
2018-04-16T09:19:45.139Z,14.32
2018-04-16T09:22:14.385Z,14.92
2018-04-16T09:24:43.210Z,15.51
2018-04-16T09:27:11.726Z,15.81
2018-04-16T09:29:40.373Z,16.37
2018-04-16T09:32:08.800Z,16.68
2018-04-16T09:34:37.706Z,16.95
2018-04-16T09:37:06.765Z,17.21
2018-04-16T09:39:35.172Z,17.66
2018-04-16T09:42:03.743Z,18.03
2018-04-16T09:44:32.293Z,18.07
2018-04-16T09:47:00.679Z,18.47
2018-04-16T09:49:29.066Z,18.49
2018-04-16T09:51:57.545Z,18.84
2018-04-16T09:54:25.920Z,19.04
2018-04-16T09:56:54.580Z,18.99
2018-04-16T09:59:23.036Z,19.57
2018-04-16T10:01:51.925Z,20.12
2018-04-16T10:04:20.442Z,19.52
2018-04-16T10:06:49.686Z,19.76
2018-04-16T10:09:18.328Z,19.52
2018-04-16T10:11:46.782Z,19.86
2018-04-16T10:14:15.225Z,19.77
2018-04-16T10:16:43.923Z,21.00
2018-04-16T10:19:13.119Z,21.29
2018-04-16T10:21:42.957Z,21.06
2018-04-16T10:24:11.803Z,21.11
2018-04-16T10:26:40.205Z,21.73
2018-04-16T10:29:11.292Z,20.79
2018-04-16T10:31:40.082Z,20.74
2018-04-16T10:34:10.204Z,20.42
2018-04-16T10:36:39.230Z,20.06
2018-04-16T10:39:07.788Z,20.36
2018-04-16T10:41:36.264Z,20.46
2018-04-16T10:44:05.665Z,20.38
2018-04-16T10:46:34.016Z,20.12
2018-04-16T10:49:02.492Z,20.18
2018-04-16T10:51:31.047Z,19.77
2018-04-16T10:53:59.403Z,20.08
2018-04-16T10:56:27.841Z,20.25
2018-04-16T10:58:56.918Z,20.96
2018-04-16T11:01:25.337Z,21.13
2018-04-16T11:03:54.438Z,21.18
2018-04-16T11:06:22.985Z,20.86
2018-04-16T11:08:51.433Z,20.74
2018-04-16T11:11:21.900Z,21.26
2018-04-16T11:13:50.475Z,20.77
2018-04-16T11:16:19.201Z,20.95
2018-04-16T11:18:48.149Z,20.31
2018-04-16T11:21:16.749Z,20.56
2018-04-16T11:23:45.349Z,21.41
2018-04-16T11:26:13.956Z,21.72
2018-04-16T11:28:43.206Z,21.81
2018-04-16T11:31:12.142Z,21.95
2018-04-16T11:33:41.189Z,22.00
2018-04-16T11:36:09.758Z,22.21
2018-04-16T11:38:38.452Z,22.17
2018-04-16T11:41:06.856Z,21.70
2018-04-16T11:43:35.740Z,22.59
2018-04-16T11:46:04.122Z,23.01
2018-04-16T11:48:32.789Z,22.39
2018-04-16T11:51:01.851Z,23.11
2018-04-16T11:53:30.234Z,23.06
2018-04-16T11:55:58.763Z,23.26
2018-04-16T11:58:27.892Z,22.79
2018-04-16T12:00:56.320Z,23.02
2018-04-16T12:03:24.802Z,23.52
2018-04-16T12:05:54.717Z,22.93
2018-04-16T12:08:23.090Z,22.90
2018-04-16T12:10:51.944Z,22.42
2018-04-16T12:13:20.778Z,22.18
2018-04-16T12:15:49.151Z,21.76
2018-04-16T12:18:17.524Z,22.03
2018-04-16T12:20:46.601Z,22.36
2018-04-16T12:23:14.959Z,22.66
2018-04-16T12:25:43.342Z,22.74
2018-04-16T12:28:12.147Z,22.20
2018-04-16T12:30:40.499Z,21.67
2018-04-16T12:33:08.878Z,21.53
2018-04-16T12:35:37.283Z,21.51
2018-04-16T12:38:05.692Z,21.55
2018-04-16T12:40:34.223Z,21.61
2018-04-16T12:43:03.442Z,21.63
2018-04-16T12:45:32.088Z,21.98
2018-04-16T12:48:00.763Z,22.59
2018-04-16T12:50:29.185Z,22.92
2018-04-16T12:52:57.636Z,23.34
2018-04-16T12:55:26.155Z,23.65
2018-04-16T12:57:54.569Z,24.02
2018-04-16T13:00:22.920Z,23.77
2018-04-16T13:02:51.261Z,22.90
2018-04-16T13:05:19.764Z,23.74
2018-04-16T13:07:48.141Z,23.79
2018-04-16T13:10:16.575Z,24.35
2018-04-16T13:12:45.004Z,24.30
2018-04-16T13:15:13.475Z,23.79
2018-04-16T13:17:41.862Z,23.66
2018-04-16T13:20:10.813Z,23.52
2018-04-16T13:22:40.020Z,23.23
2018-04-16T13:25:08.397Z,24.09
2018-04-16T13:27:36.864Z,23.97
2018-04-16T13:30:05.373Z,23.81
2018-04-16T13:32:33.952Z,23.54
2018-04-16T13:35:03.255Z,23.78
2018-04-16T13:37:33.134Z,23.64
2018-04-16T13:40:02.539Z,23.87
2018-04-16T13:42:32.723Z,24.49
2018-04-16T13:45:01.287Z,25.34
2018-04-16T13:47:30.215Z,25.26
2018-04-16T13:49:58.643Z,25.94
2018-04-16T13:52:27.034Z,25.82
2018-04-16T13:54:55.431Z,24.84
2018-04-16T13:57:24.469Z,24.47
2018-04-16T13:59:52.815Z,23.91
2018-04-16T14:02:21.666Z,22.89
2018-04-16T14:04:51.074Z,22.73
2018-04-16T14:07:19.647Z,22.37
2018-04-16T14:09:48.045Z,21.97
2018-04-16T14:12:16.641Z,21.33
2018-04-16T14:14:45.045Z,20.83
2018-04-16T14:17:13.917Z,20.78
2018-04-16T14:19:43.136Z,20.62
2018-04-16T14:22:11.616Z,20.11
2018-04-16T14:24:40.088Z,20.22
2018-04-16T14:27:09.504Z,20.05
2018-04-16T14:29:38.106Z,19.97
2018-04-16T14:32:06.725Z,20.04
2018-04-16T14:34:37.141Z,20.07
2018-04-16T14:37:06.241Z,20.06
2018-04-16T14:39:34.930Z,19.97
2018-04-16T14:42:04.038Z,19.81
2018-04-16T14:44:32.505Z,19.44
2018-04-16T14:47:00.961Z,17.82
2018-04-16T14:49:30.298Z,17.01
2018-04-16T14:51:59.390Z,16.18
2018-04-16T14:54:28.373Z,16.23
2018-04-16T14:56:56.783Z,16.02
2018-04-16T14:59:25.185Z,15.49
2018-04-16T15:01:53.573Z,15.29
2018-04-16T15:04:22.192Z,15.36
2018-04-16T15:06:50.677Z,15.45
2018-04-16T15:09:19.086Z,15.51
2018-04-16T15:11:48.289Z,15.51
2018-04-16T15:14:16.964Z,15.35
2018-04-16T15:16:45.532Z,15.36
2018-04-16T15:19:15.365Z,15.30
2018-04-16T15:21:44.173Z,15.22
2018-04-16T15:24:12.709Z,15.14
2018-04-16T15:26:41.321Z,15.12
2018-04-16T15:29:09.961Z,15.15
2018-04-16T15:31:39.389Z,15.27
2018-04-16T15:34:07.972Z,15.10
2018-04-16T15:36:36.595Z,15.13
2018-04-16T15:39:05.953Z,15.22
2018-04-16T15:41:35.151Z,15.10
2018-04-16T15:44:03.785Z,15.17
2018-04-16T15:46:32.642Z,15.16
2018-04-16T15:49:01.229Z,15.10
2018-04-16T15:51:29.728Z,14.92
2018-04-16T15:53:58.377Z,14.86
2018-04-16T15:56:26.989Z,14.78
2018-04-16T15:58:55.745Z,15.01
2018-04-16T16:01:24.542Z,15.04
2018-04-16T16:03:53.965Z,14.58
2018-04-16T16:06:23.541Z,14.62
2018-04-16T16:08:52.119Z,14.79
2018-04-16T16:11:20.817Z,14.80
2018-04-16T16:13:49.318Z,14.84
2018-04-16T16:16:17.695Z,14.90
2018-04-16T16:18:46.141Z,15.01
2018-04-16T16:21:14.553Z,15.08
2018-04-16T16:23:43.051Z,15.18
2018-04-16T16:26:11.508Z,15.23
2018-04-16T16:28:39.927Z,15.35
2018-04-16T16:31:09.319Z,15.40
2018-04-16T16:33:38.691Z,15.46
2018-04-16T16:36:07.211Z,15.59
2018-04-16T16:38:35.968Z,15.68
2018-04-16T16:41:04.534Z,15.70
2018-04-16T16:43:33.451Z,15.76
2018-04-16T16:46:03.090Z,15.80
2018-04-16T16:48:33.871Z,15.40
2018-04-16T16:51:02.500Z,15.45
2018-04-16T16:53:31.251Z,15.47
2018-04-16T16:55:59.909Z,15.49
2018-04-16T16:58:28.310Z,15.58
2018-04-16T17:00:56.773Z,15.62
2018-04-16T17:03:25.250Z,15.68
2018-04-16T17:05:53.723Z,15.71
2018-04-16T17:08:22.121Z,15.75
2018-04-16T17:10:50.622Z,15.75
2018-04-16T17:13:19.096Z,15.83
2018-04-16T17:15:47.725Z,15.85
2018-04-16T17:18:16.447Z,15.86
2018-04-16T17:20:45.570Z,15.86
2018-04-16T17:23:14.428Z,15.76
2018-04-16T17:25:42.991Z,15.74
2018-04-16T17:28:11.638Z,15.67
2018-04-16T17:30:40.243Z,15.53
2018-04-16T17:33:08.911Z,15.48
2018-04-16T17:35:38.028Z,15.35
2018-04-16T17:38:06.594Z,15.34
2018-04-16T17:40:35.591Z,15.29
2018-04-16T17:43:04.483Z,15.16
2018-04-16T17:45:33.538Z,14.98
2018-04-16T17:48:02.479Z,14.91
2018-04-16T17:50:31.038Z,14.80
2018-04-16T17:52:59.543Z,14.68
2018-04-16T17:55:29.584Z,14.59
2018-04-16T17:57:58.733Z,14.60
2018-04-16T18:00:27.811Z,14.54
2018-04-16T18:02:57.820Z,14.56
2018-04-16T18:05:27.059Z,14.57
2018-04-16T18:07:55.817Z,14.53
2018-04-16T18:10:25.083Z,14.49
2018-04-16T18:12:53.921Z,14.42
2018-04-16T18:15:22.701Z,14.35
2018-04-16T18:17:51.477Z,14.30
2018-04-16T18:20:20.263Z,14.23
2018-04-16T18:22:48.641Z,14.18
2018-04-16T18:25:17.385Z,14.10
2018-04-16T18:27:45.906Z,14.08
2018-04-16T18:30:14.438Z,14.00
2018-04-16T18:32:43.021Z,13.86
2018-04-16T18:35:11.531Z,13.86
2018-04-16T18:37:40.013Z,13.71
2018-04-16T18:40:09.300Z,13.84
2018-04-16T18:42:37.772Z,13.87
2018-04-16T18:45:06.256Z,13.85
2018-04-16T18:47:35.246Z,13.84
2018-04-16T18:50:03.818Z,13.74
2018-04-16T18:52:34.035Z,13.58
2018-04-16T18:55:02.892Z,13.58
2018-04-16T18:57:32.572Z,13.61
2018-04-16T19:00:01.141Z,13.59
2018-04-16T19:02:30.015Z,13.55
2018-04-16T19:04:58.597Z,13.61
2018-04-16T19:07:27.867Z,13.67
2018-04-16T19:09:56.582Z,13.66
2018-04-16T19:12:25.612Z,13.69
2018-04-16T19:14:55.524Z,13.67
2018-04-16T19:17:24.046Z,13.64
2018-04-16T19:19:52.555Z,13.62
2018-04-16T19:22:21.056Z,13.66
2018-04-16T19:24:50.226Z,13.63
2018-04-16T19:27:24.138Z,13.55
2018-04-16T19:29:53.664Z,13.51
2018-04-16T19:32:23.657Z,13.51
2018-04-16T19:34:58.178Z,13.53
2018-04-16T19:37:27.123Z,13.53
2018-04-16T19:39:56.276Z,13.55
2018-04-16T19:42:30.700Z,13.60
2018-04-16T19:44:59.691Z,13.60
2018-04-16T19:47:28.273Z,13.57
2018-04-16T19:50:03.435Z,13.61
2018-04-16T19:52:33.249Z,13.63
2018-04-16T19:55:01.912Z,13.59
2018-04-16T19:57:36.867Z,13.54
2018-04-16T20:00:05.661Z,13.46
2018-04-16T20:02:40.121Z,13.39
2018-04-16T20:05:08.795Z,13.41
2018-04-16T20:07:37.623Z,13.39
2018-04-16T20:10:07.330Z,13.38
2018-04-16T20:12:35.907Z,13.33
2018-04-16T20:15:04.367Z,13.29
2018-04-16T20:17:32.876Z,13.22
2018-04-16T20:20:01.485Z,13.25
2018-04-16T20:22:29.948Z,13.23
2018-04-16T20:24:58.600Z,13.21
2018-04-16T20:27:27.139Z,13.16
2018-04-16T20:29:56.710Z,13.09
2018-04-16T20:32:26.384Z,13.04
2018-04-16T20:34:55.282Z,12.99
2018-04-16T20:37:24.066Z,12.92
2018-04-16T20:39:52.680Z,12.89
2018-04-16T20:42:21.123Z,12.80
2018-04-16T20:44:49.464Z,12.74
2018-04-16T20:47:18.907Z,12.66
2018-04-16T20:49:47.279Z,12.58
2018-04-16T20:52:16.484Z,12.52
2018-04-16T20:54:44.992Z,12.48
2018-04-16T20:57:13.346Z,12.47
2018-04-16T20:59:41.764Z,12.48
2018-04-16T21:02:10.845Z,12.50
2018-04-16T21:04:39.295Z,12.49
2018-04-16T21:07:07.839Z,12.47
2018-04-16T21:09:36.463Z,12.48
2018-04-16T21:12:04.851Z,12.52
2018-04-16T21:14:33.344Z,12.51
2018-04-16T21:17:02.673Z,12.50
2018-04-16T21:19:31.183Z,12.46
2018-04-16T21:21:59.598Z,12.44
2018-04-16T21:24:28.257Z,12.37
2018-04-16T21:26:57.548Z,12.32
2018-04-16T21:29:26.060Z,12.33
2018-04-16T21:31:55.659Z,12.34
2018-04-16T21:34:24.117Z,12.27
2018-04-16T21:36:52.507Z,12.23
2018-04-16T21:39:20.948Z,12.21
2018-04-16T21:41:49.327Z,12.17
2018-04-16T21:44:17.686Z,12.10
2018-04-16T21:46:47.211Z,12.05
2018-04-16T21:49:15.756Z,12.01
2018-04-16T21:51:44.171Z,11.96
2018-04-16T21:54:13.246Z,11.90
2018-04-16T21:56:42.008Z,11.86
2018-04-16T21:59:10.388Z,11.80
2018-04-16T22:01:38.974Z,11.71
2018-04-16T22:04:07.350Z,11.58
2018-04-16T22:06:35.877Z,11.55
2018-04-16T22:09:04.312Z,11.49
2018-04-16T22:11:35.131Z,11.45
2018-04-16T22:14:03.851Z,11.36
2018-04-16T22:16:33.412Z,11.32
2018-04-16T22:19:01.791Z,11.28
2018-04-16T22:21:30.206Z,11.22
2018-04-16T22:23:59.287Z,11.20
2018-04-16T22:26:28.330Z,11.16
2018-04-16T22:28:56.817Z,11.08
2018-04-16T22:31:25.999Z,11.02
2018-04-16T22:33:54.748Z,10.98
2018-04-16T22:36:23.232Z,10.98
2018-04-16T22:38:52.046Z,10.95
2018-04-16T22:41:20.451Z,10.93
2018-04-16T22:43:48.793Z,10.89
2018-04-16T22:46:17.179Z,10.89
2018-04-16T22:48:45.583Z,10.87
2018-04-16T22:51:13.932Z,10.83
2018-04-16T22:53:42.722Z,10.80
2018-04-16T22:56:11.099Z,10.79
2018-04-16T22:58:39.462Z,10.78
2018-04-16T23:01:08.168Z,10.80
2018-04-16T23:03:36.575Z,10.75
2018-04-16T23:06:04.992Z,10.70
2018-04-16T23:08:33.753Z,10.71
2018-04-16T23:11:02.200Z,10.72
2018-04-16T23:13:30.920Z,10.70
2018-04-16T23:15:59.965Z,10.69
2018-04-16T23:18:28.586Z,10.65
2018-04-16T23:20:57.116Z,10.67
2018-04-16T23:23:26.323Z,10.66
2018-04-16T23:25:55.170Z,10.63
2018-04-16T23:28:23.625Z,10.60
2018-04-16T23:30:53.812Z,10.56
2018-04-16T23:33:22.435Z,10.51
2018-04-16T23:35:50.789Z,10.42
2018-04-16T23:38:19.377Z,10.40
2018-04-16T23:40:47.745Z,10.35
2018-04-16T23:43:17.059Z,10.32
2018-04-16T23:45:45.431Z,10.28
2018-04-16T23:48:14.116Z,10.23
2018-04-16T23:50:42.502Z,10.21
2018-04-16T23:53:10.937Z,10.17
2018-04-16T23:55:39.279Z,10.15
2018-04-16T23:58:08.646Z,9.93
